sensor_id;sensor_type;location;lat;lon;timestamp;P1;durP1;ratioP1;P2;durP2;ratioP2
23117;SDS011;11728;50.624;6.014;2023-07-02T00:01:58;15.18;;;7.38;;
23117;SDS011;11728;50.624;6.014;2023-07-02T00:07:19;15.40;;;7.63;;
23117;SDS011;11728;50.624;6.014;2023-07-02T00:12:40;16.23;;;7.93;;
23117;SDS011;11728;50.624;6.014;2023-07-02T00:18:00;17.20;;;8.57;;
23117;SDS011;11728;50.624;6.014;2023-07-02T00:23:21;19.90;;;8.68;;
23117;SDS011;11728;50.624;6.014;2023-07-02T00:28:42;16.83;;;8.35;;
23117;SDS011;11728;50.624;6.014;2023-07-02T00:34:03;16.85;;;8.50;;
23117;SDS011;11728;50.624;6.014;2023-07-02T00:39:24;17.58;;;8.88;;
23117;SDS011;11728;50.624;6.014;2023-07-02T00:44:45;17.00;;;8.95;;
23117;SDS011;11728;50.624;6.014;2023-07-02T00:50:06;17.05;;;8.27;;
23117;SDS011;11728;50.624;6.014;2023-07-02T00:55:28;20.48;;;9.45;;
23117;SDS011;11728;50.624;6.014;2023-07-02T01:00:48;18.90;;;9.13;;
23117;SDS011;11728;50.624;6.014;2023-07-02T01:06:09;19.15;;;8.95;;
23117;SDS011;11728;50.624;6.014;2023-07-02T01:11:31;18.70;;;9.70;;
23117;SDS011;11728;50.624;6.014;2023-07-02T01:16:54;20.95;;;11.10;;
23117;SDS011;11728;50.624;6.014;2023-07-02T01:22:18;20.58;;;10.85;;
23117;SDS011;11728;50.624;6.014;2023-07-02T01:27:39;21.30;;;10.82;;
23117;SDS011;11728;50.624;6.014;2023-07-02T01:33:00;21.98;;;11.13;;
23117;SDS011;11728;50.624;6.014;2023-07-02T01:38:21;26.17;;;12.60;;
23117;SDS011;11728;50.624;6.014;2023-07-02T01:43:42;22.10;;;10.75;;
23117;SDS011;11728;50.624;6.014;2023-07-02T01:49:03;25.95;;;12.13;;
23117;SDS011;11728;50.624;6.014;2023-07-02T01:54:26;25.30;;;11.93;;
23117;SDS011;11728;50.624;6.014;2023-07-02T01:59:50;28.25;;;12.30;;
23117;SDS011;11728;50.624;6.014;2023-07-02T02:05:10;20.67;;;12.73;;
23117;SDS011;11728;50.624;6.014;2023-07-02T02:10:31;29.52;;;12.98;;
23117;SDS011;11728;50.624;6.014;2023-07-02T02:15:53;27.23;;;13.35;;
23117;SDS011;11728;50.624;6.014;2023-07-02T02:21:14;25.17;;;13.43;;
23117;SDS011;11728;50.624;6.014;2023-07-02T02:26:35;25.77;;;14.40;;
23117;SDS011;11728;50.624;6.014;2023-07-02T02:31:56;30.88;;;15.23;;
23117;SDS011;11728;50.624;6.014;2023-07-02T02:37:16;25.77;;;14.15;;
23117;SDS011;11728;50.624;6.014;2023-07-02T02:42:38;27.63;;;14.40;;
23117;SDS011;11728;50.624;6.014;2023-07-02T02:47:59;28.95;;;15.10;;
23117;SDS011;11728;50.624;6.014;2023-07-02T02:53:20;27.60;;;14.63;;
23117;SDS011;11728;50.624;6.014;2023-07-02T02:58:41;28.23;;;15.27;;
23117;SDS011;11728;50.624;6.014;2023-07-02T03:04:02;30.55;;;16.20;;
23117;SDS011;11728;50.624;6.014;2023-07-02T03:09:23;28.75;;;16.60;;
23117;SDS011;11728;50.624;6.014;2023-07-02T03:14:43;31.88;;;17.00;;
23117;SDS011;11728;50.624;6.014;2023-07-02T03:20:05;29.00;;;15.50;;
23117;SDS011;11728;50.624;6.014;2023-07-02T03:25:28;31.73;;;16.15;;
23117;SDS011;11728;50.624;6.014;2023-07-02T03:30:49;28.92;;;15.93;;
23117;SDS011;11728;50.624;6.014;2023-07-02T03:36:09;33.80;;;16.77;;
23117;SDS011;11728;50.624;6.014;2023-07-02T03:41:30;35.30;;;17.13;;
23117;SDS011;11728;50.624;6.014;2023-07-02T03:46:51;31.10;;;17.48;;
23117;SDS011;11728;50.624;6.014;2023-07-02T03:52:12;31.75;;;17.92;;
23117;SDS011;11728;50.624;6.014;2023-07-02T03:57:33;33.45;;;18.58;;
23117;SDS011;11728;50.624;6.014;2023-07-02T04:02:53;32.75;;;18.67;;
23117;SDS011;11728;50.624;6.014;2023-07-02T04:08:14;31.30;;;16.42;;
23117;SDS011;11728;50.624;6.014;2023-07-02T04:13:35;37.83;;;18.30;;
23117;SDS011;11728;50.624;6.014;2023-07-02T04:18:56;32.55;;;18.02;;
23117;SDS011;11728;50.624;6.014;2023-07-02T04:24:17;35.50;;;18.65;;
23117;SDS011;11728;50.624;6.014;2023-07-02T04:29:37;33.25;;;18.42;;
23117;SDS011;11728;50.624;6.014;2023-07-02T04:34:58;39.83;;;19.02;;
23117;SDS011;11728;50.624;6.014;2023-07-02T04:40:19;35.28;;;18.50;;
23117;SDS011;11728;50.624;6.014;2023-07-02T04:45:40;42.13;;;19.45;;
23117;SDS011;11728;50.624;6.014;2023-07-02T04:51:00;39.90;;;19.58;;
23117;SDS011;11728;50.624;6.014;2023-07-02T04:56:21;39.83;;;19.63;;
23117;SDS011;11728;50.624;6.014;2023-07-02T05:01:42;42.53;;;21.35;;
23117;SDS011;11728;50.624;6.014;2023-07-02T05:07:05;42.08;;;21.52;;
23117;SDS011;11728;50.624;6.014;2023-07-02T05:12:26;44.13;;;21.42;;
23117;SDS011;11728;50.624;6.014;2023-07-02T05:17:46;43.15;;;22.38;;
23117;SDS011;11728;50.624;6.014;2023-07-02T05:23:07;42.17;;;21.73;;
23117;SDS011;11728;50.624;6.014;2023-07-02T05:28:28;43.97;;;21.45;;
23117;SDS011;11728;50.624;6.014;2023-07-02T05:33:48;39.28;;;21.38;;
23117;SDS011;11728;50.624;6.014;2023-07-02T05:39:09;39.08;;;21.67;;
23117;SDS011;11728;50.624;6.014;2023-07-02T05:44:30;39.65;;;21.48;;
23117;SDS011;11728;50.624;6.014;2023-07-02T05:49:50;40.70;;;21.73;;
23117;SDS011;11728;50.624;6.014;2023-07-02T05:55:11;42.90;;;21.65;;
23117;SDS011;11728;50.624;6.014;2023-07-02T06:00:32;47.00;;;22.77;;
23117;SDS011;11728;50.624;6.014;2023-07-02T06:05:53;41.85;;;21.17;;
23117;SDS011;11728;50.624;6.014;2023-07-02T06:11:13;46.78;;;22.73;;
23117;SDS011;11728;50.624;6.014;2023-07-02T06:16:35;42.45;;;21.40;;
23117;SDS011;11728;50.624;6.014;2023-07-02T06:21:55;42.03;;;21.20;;
23117;SDS011;11728;50.624;6.014;2023-07-02T06:27:16;42.53;;;22.60;;
23117;SDS011;11728;50.624;6.014;2023-07-02T06:32:37;44.35;;;22.13;;
23117;SDS011;11728;50.624;6.014;2023-07-02T06:37:58;44.80;;;22.00;;
23117;SDS011;11728;50.624;6.014;2023-07-02T06:43:19;36.13;;;19.90;;
23117;SDS011;11728;50.624;6.014;2023-07-02T06:48:40;39.20;;;21.15;;
23117;SDS011;11728;50.624;6.014;2023-07-02T06:54:00;43.88;;;21.67;;
23117;SDS011;11728;50.624;6.014;2023-07-02T06:59:21;44.00;;;22.25;;
23117;SDS011;11728;50.624;6.014;2023-07-02T07:04:43;36.20;;;20.95;;
23117;SDS011;11728;50.624;6.014;2023-07-02T07:10:04;41.50;;;20.20;;
23117;SDS011;11728;50.624;6.014;2023-07-02T07:15:25;38.88;;;20.27;;
23117;SDS011;11728;50.624;6.014;2023-07-02T07:20:45;44.38;;;20.70;;
23117;SDS011;11728;50.624;6.014;2023-07-02T07:26:06;34.13;;;18.52;;
23117;SDS011;11728;50.624;6.014;2023-07-02T07:31:27;35.90;;;19.40;;
23117;SDS011;11728;50.624;6.014;2023-07-02T07:36:48;38.63;;;19.50;;
23117;SDS011;11728;50.624;6.014;2023-07-02T07:42:08;35.92;;;18.02;;
23117;SDS011;11728;50.624;6.014;2023-07-02T07:47:29;35.22;;;18.60;;
23117;SDS011;11728;50.624;6.014;2023-07-02T07:52:50;36.60;;;18.77;;
23117;SDS011;11728;50.624;6.014;2023-07-02T07:58:11;36.28;;;18.15;;
23117;SDS011;11728;50.624;6.014;2023-07-02T08:03:32;33.70;;;19.25;;
23117;SDS011;11728;50.624;6.014;2023-07-02T08:08:53;32.10;;;19.17;;
23117;SDS011;11728;50.624;6.014;2023-07-02T08:14:13;32.55;;;17.48;;
23117;SDS011;11728;50.624;6.014;2023-07-02T08:19:34;33.25;;;18.15;;
23117;SDS011;11728;50.624;6.014;2023-07-02T08:24:55;37.15;;;17.52;;
23117;SDS011;11728;50.624;6.014;2023-07-02T08:30:15;34.72;;;18.65;;
23117;SDS011;11728;50.624;6.014;2023-07-02T08:35:36;31.42;;;17.90;;
23117;SDS011;11728;50.624;6.014;2023-07-02T08:40:57;32.83;;;17.85;;
23117;SDS011;11728;50.624;6.014;2023-07-02T08:46:17;35.20;;;17.98;;
23117;SDS011;11728;50.624;6.014;2023-07-02T08:51:38;33.30;;;17.65;;
23117;SDS011;11728;50.624;6.014;2023-07-02T08:56:59;32.65;;;18.70;;
23117;SDS011;11728;50.624;6.014;2023-07-02T09:02:33;33.47;;;18.23;;
23117;SDS011;11728;50.624;6.014;2023-07-02T09:07:55;29.38;;;18.13;;
23117;SDS011;11728;50.624;6.014;2023-07-02T09:13:15;32.22;;;17.90;;
23117;SDS011;11728;50.624;6.014;2023-07-02T09:18:37;33.70;;;17.17;;
23117;SDS011;11728;50.624;6.014;2023-07-02T09:23:57;33.40;;;17.58;;
23117;SDS011;11728;50.624;6.014;2023-07-02T09:29:25;33.55;;;16.10;;
23117;SDS011;11728;50.624;6.014;2023-07-02T09:34:49;27.80;;;15.73;;
23117;SDS011;11728;50.624;6.014;2023-07-02T09:40:09;27.60;;;16.33;;
23117;SDS011;11728;50.624;6.014;2023-07-02T09:45:31;27.33;;;15.45;;
23117;SDS011;11728;50.624;6.014;2023-07-02T09:50:51;31.15;;;16.63;;
23117;SDS011;11728;50.624;6.014;2023-07-02T09:56:14;33.65;;;16.52;;
23117;SDS011;11728;50.624;6.014;2023-07-02T10:01:35;34.60;;;16.73;;
23117;SDS011;11728;50.624;6.014;2023-07-02T10:06:56;31.00;;;16.30;;
23117;SDS011;11728;50.624;6.014;2023-07-02T10:12:18;30.38;;;16.17;;
23117;SDS011;11728;50.624;6.014;2023-07-02T10:17:39;28.23;;;15.25;;
23117;SDS011;11728;50.624;6.014;2023-07-02T10:23:00;28.92;;;14.93;;
23117;SDS011;11728;50.624;6.014;2023-07-02T10:28:22;26.77;;;14.82;;
23117;SDS011;11728;50.624;6.014;2023-07-02T10:33:47;29.75;;;15.60;;
23117;SDS011;11728;50.624;6.014;2023-07-02T10:39:08;26.60;;;15.80;;
23117;SDS011;11728;50.624;6.014;2023-07-02T10:44:29;24.58;;;13.75;;
23117;SDS011;11728;50.624;6.014;2023-07-02T10:49:49;24.52;;;13.40;;
23117;SDS011;11728;50.624;6.014;2023-07-02T10:55:10;23.83;;;12.77;;
23117;SDS011;11728;50.624;6.014;2023-07-02T11:00:49;22.52;;;13.95;;
23117;SDS011;11728;50.624;6.014;2023-07-02T11:06:11;20.85;;;12.40;;
23117;SDS011;11728;50.624;6.014;2023-07-02T11:11:32;20.55;;;11.98;;
23117;SDS011;11728;50.624;6.014;2023-07-02T11:16:56;18.20;;;11.85;;
23117;SDS011;11728;50.624;6.014;2023-07-02T11:22:17;21.65;;;11.65;;
23117;SDS011;11728;50.624;6.014;2023-07-02T11:27:38;23.02;;;12.23;;
23117;SDS011;11728;50.624;6.014;2023-07-02T11:33:00;20.40;;;12.15;;
23117;SDS011;11728;50.624;6.014;2023-07-02T11:38:21;19.35;;;11.65;;
23117;SDS011;11728;50.624;6.014;2023-07-02T11:43:41;20.70;;;12.63;;
23117;SDS011;11728;50.624;6.014;2023-07-02T11:49:03;23.15;;;12.35;;
23117;SDS011;11728;50.624;6.014;2023-07-02T11:54:30;25.92;;;12.48;;
23117;SDS011;11728;50.624;6.014;2023-07-02T11:59:51;23.85;;;12.60;;
23117;SDS011;11728;50.624;6.014;2023-07-02T12:05:12;22.95;;;12.13;;
23117;SDS011;11728;50.624;6.014;2023-07-02T12:10:33;25.17;;;12.27;;
23117;SDS011;11728;50.624;6.014;2023-07-02T12:15:54;24.30;;;12.48;;
23117;SDS011;11728;50.624;6.014;2023-07-02T12:21:14;25.60;;;12.75;;
23117;SDS011;11728;50.624;6.014;2023-07-02T12:26:39;22.63;;;12.65;;
23117;SDS011;11728;50.624;6.014;2023-07-02T12:32:03;21.27;;;12.02;;
23117;SDS011;11728;50.624;6.014;2023-07-02T12:37:24;22.20;;;12.25;;
23117;SDS011;11728;50.624;6.014;2023-07-02T12:42:46;25.83;;;12.70;;
23117;SDS011;11728;50.624;6.014;2023-07-02T12:48:07;20.48;;;11.43;;
23117;SDS011;11728;50.624;6.014;2023-07-02T12:53:29;21.15;;;11.60;;
23117;SDS011;11728;50.624;6.014;2023-07-02T12:58:50;19.30;;;11.10;;
23117;SDS011;11728;50.624;6.014;2023-07-02T13:04:11;20.27;;;11.43;;
23117;SDS011;11728;50.624;6.014;2023-07-02T13:09:32;22.75;;;11.60;;
23117;SDS011;11728;50.624;6.014;2023-07-02T13:14:53;20.75;;;10.57;;
23117;SDS011;11728;50.624;6.014;2023-07-02T13:20:13;18.55;;;11.05;;
23117;SDS011;11728;50.624;6.014;2023-07-02T13:25:34;21.40;;;10.45;;
23117;SDS011;11728;50.624;6.014;2023-07-02T13:30:55;18.80;;;10.70;;
23117;SDS011;11728;50.624;6.014;2023-07-02T13:36:16;17.13;;;10.38;;
23117;SDS011;11728;50.624;6.014;2023-07-02T13:41:37;16.88;;;10.73;;
23117;SDS011;11728;50.624;6.014;2023-07-02T13:46:57;19.73;;;10.45;;
23117;SDS011;11728;50.624;6.014;2023-07-02T13:52:18;19.05;;;11.18;;
23117;SDS011;11728;50.624;6.014;2023-07-02T13:57:39;21.25;;;10.68;;
23117;SDS011;11728;50.624;6.014;2023-07-02T14:03:00;17.73;;;10.70;;
23117;SDS011;11728;50.624;6.014;2023-07-02T14:08:21;18.73;;;9.57;;
23117;SDS011;11728;50.624;6.014;2023-07-02T14:13:42;19.75;;;10.25;;
23117;SDS011;11728;50.624;6.014;2023-07-02T14:19:03;20.38;;;9.88;;
23117;SDS011;11728;50.624;6.014;2023-07-02T14:24:24;20.33;;;11.35;;
23117;SDS011;11728;50.624;6.014;2023-07-02T14:29:44;16.98;;;10.77;;
23117;SDS011;11728;50.624;6.014;2023-07-02T14:35:07;18.85;;;10.10;;
23117;SDS011;11728;50.624;6.014;2023-07-02T14:40:28;20.25;;;9.90;;
23117;SDS011;11728;50.624;6.014;2023-07-02T14:45:50;16.80;;;10.23;;
23117;SDS011;11728;50.624;6.014;2023-07-02T14:51:12;23.17;;;10.65;;
23117;SDS011;11728;50.624;6.014;2023-07-02T14:56:33;20.92;;;9.77;;
23117;SDS011;11728;50.624;6.014;2023-07-02T15:01:56;21.90;;;10.95;;
23117;SDS011;11728;50.624;6.014;2023-07-02T15:07:17;18.50;;;9.55;;
23117;SDS011;11728;50.624;6.014;2023-07-02T15:12:37;20.50;;;9.90;;
23117;SDS011;11728;50.624;6.014;2023-07-02T15:17:58;20.60;;;10.07;;
23117;SDS011;11728;50.624;6.014;2023-07-02T15:23:19;20.45;;;9.68;;
23117;SDS011;11728;50.624;6.014;2023-07-02T15:28:40;22.02;;;10.35;;
23117;SDS011;11728;50.624;6.014;2023-07-02T15:34:01;20.75;;;10.50;;
23117;SDS011;11728;50.624;6.014;2023-07-02T15:39:22;23.35;;;10.75;;
23117;SDS011;11728;50.624;6.014;2023-07-02T15:44:45;19.48;;;9.45;;
23117;SDS011;11728;50.624;6.014;2023-07-02T15:50:06;22.67;;;9.52;;
23117;SDS011;11728;50.624;6.014;2023-07-02T15:55:27;18.85;;;10.27;;
23117;SDS011;11728;50.624;6.014;2023-07-02T16:00:48;24.10;;;10.23;;
23117;SDS011;11728;50.624;6.014;2023-07-02T16:06:09;18.88;;;9.73;;
23117;SDS011;11728;50.624;6.014;2023-07-02T16:11:31;19.90;;;10.13;;
23117;SDS011;11728;50.624;6.014;2023-07-02T16:16:54;20.05;;;9.88;;
23117;SDS011;11728;50.624;6.014;2023-07-02T16:22:15;20.80;;;10.15;;
23117;SDS011;11728;50.624;6.014;2023-07-02T16:27:36;19.58;;;8.68;;
23117;SDS011;11728;50.624;6.014;2023-07-02T16:32:56;19.88;;;9.00;;
23117;SDS011;11728;50.624;6.014;2023-07-02T16:38:17;19.00;;;8.82;;
23117;SDS011;11728;50.624;6.014;2023-07-02T16:43:38;21.73;;;9.00;;
23117;SDS011;11728;50.624;6.014;2023-07-02T16:48:59;21.10;;;10.25;;
23117;SDS011;11728;50.624;6.014;2023-07-02T16:54:20;20.55;;;10.05;;
23117;SDS011;11728;50.624;6.014;2023-07-02T16:59:42;20.25;;;8.98;;
23117;SDS011;11728;50.624;6.014;2023-07-02T17:05:02;19.05;;;8.88;;
23117;SDS011;11728;50.624;6.014;2023-07-02T17:10:23;17.08;;;8.65;;
23117;SDS011;11728;50.624;6.014;2023-07-02T17:15:44;19.02;;;8.32;;
23117;SDS011;11728;50.624;6.014;2023-07-02T17:21:06;21.67;;;9.13;;
23117;SDS011;11728;50.624;6.014;2023-07-02T17:26:26;17.23;;;8.35;;
23117;SDS011;11728;50.624;6.014;2023-07-02T17:31:48;19.35;;;8.50;;
23117;SDS011;11728;50.624;6.014;2023-07-02T17:37:11;25.58;;;8.52;;
23117;SDS011;11728;50.624;6.014;2023-07-02T17:42:35;20.95;;;7.97;;
23117;SDS011;11728;50.624;6.014;2023-07-02T17:47:55;20.80;;;7.97;;
23117;SDS011;11728;50.624;6.014;2023-07-02T17:53:18;18.23;;;8.20;;
23117;SDS011;11728;50.624;6.014;2023-07-02T17:58:38;19.17;;;8.38;;
23117;SDS011;11728;50.624;6.014;2023-07-02T18:10:16;17.38;;;8.30;;
23117;SDS011;11728;50.624;6.014;2023-07-02T18:15:37;20.38;;;8.32;;
23117;SDS011;11728;50.624;6.014;2023-07-02T18:20:57;19.17;;;8.05;;
23117;SDS011;11728;50.624;6.014;2023-07-02T18:26:18;19.25;;;8.15;;
23117;SDS011;11728;50.624;6.014;2023-07-02T18:31:39;20.02;;;8.23;;
23117;SDS011;11728;50.624;6.014;2023-07-02T18:37:00;20.23;;;8.20;;
23117;SDS011;11728;50.624;6.014;2023-07-02T18:42:21;22.27;;;8.18;;
23117;SDS011;11728;50.624;6.014;2023-07-02T18:47:43;20.08;;;8.73;;
23117;SDS011;11728;50.624;6.014;2023-07-02T18:53:04;18.77;;;8.23;;
23117;SDS011;11728;50.624;6.014;2023-07-02T18:58:25;22.55;;;8.52;;
23117;SDS011;11728;50.624;6.014;2023-07-02T19:03:47;19.77;;;8.10;;
23117;SDS011;11728;50.624;6.014;2023-07-02T19:09:08;23.05;;;8.27;;
23117;SDS011;11728;50.624;6.014;2023-07-02T19:14:28;21.00;;;8.25;;
23117;SDS011;11728;50.624;6.014;2023-07-02T19:19:50;19.40;;;8.25;;
23117;SDS011;11728;50.624;6.014;2023-07-02T19:25:11;21.67;;;7.85;;
23117;SDS011;11728;50.624;6.014;2023-07-02T19:30:32;22.60;;;8.10;;
23117;SDS011;11728;50.624;6.014;2023-07-02T19:35:52;19.33;;;8.32;;
23117;SDS011;11728;50.624;6.014;2023-07-02T19:41:13;21.38;;;8.20;;
23117;SDS011;11728;50.624;6.014;2023-07-02T19:46:34;19.73;;;7.47;;
23117;SDS011;11728;50.624;6.014;2023-07-02T19:51:54;24.63;;;7.57;;
23117;SDS011;11728;50.624;6.014;2023-07-02T19:57:16;23.10;;;7.57;;
23117;SDS011;11728;50.624;6.014;2023-07-02T20:02:37;17.63;;;6.70;;
23117;SDS011;11728;50.624;6.014;2023-07-02T20:08:00;22.95;;;7.03;;
23117;SDS011;11728;50.624;6.014;2023-07-02T20:13:21;18.52;;;6.45;;
23117;SDS011;11728;50.624;6.014;2023-07-02T20:18:42;16.83;;;6.15;;
23117;SDS011;11728;50.624;6.014;2023-07-02T20:24:03;18.25;;;4.40;;
23117;SDS011;11728;50.624;6.014;2023-07-02T20:29:24;13.43;;;3.95;;
23117;SDS011;11728;50.624;6.014;2023-07-02T20:34:45;14.73;;;4.38;;
23117;SDS011;11728;50.624;6.014;2023-07-02T20:40:10;20.42;;;4.18;;
23117;SDS011;11728;50.624;6.014;2023-07-02T20:45:33;17.70;;;4.05;;
23117;SDS011;11728;50.624;6.014;2023-07-02T20:51:01;14.82;;;3.95;;
23117;SDS011;11728;50.624;6.014;2023-07-02T20:56:22;17.15;;;3.80;;
23117;SDS011;11728;50.624;6.014;2023-07-02T21:01:43;13.00;;;3.25;;
23117;SDS011;11728;50.624;6.014;2023-07-02T21:07:04;13.57;;;2.80;;
23117;SDS011;11728;50.624;6.014;2023-07-02T21:12:25;13.70;;;3.50;;
23117;SDS011;11728;50.624;6.014;2023-07-02T21:17:49;14.15;;;3.90;;
23117;SDS011;11728;50.624;6.014;2023-07-02T21:23:10;15.30;;;3.40;;
23117;SDS011;11728;50.624;6.014;2023-07-02T21:28:31;17.55;;;3.53;;
23117;SDS011;11728;50.624;6.014;2023-07-02T21:33:52;17.75;;;3.97;;
23117;SDS011;11728;50.624;6.014;2023-07-02T21:39:12;17.55;;;4.20;;
23117;SDS011;11728;50.624;6.014;2023-07-02T21:44:33;15.63;;;4.40;;
23117;SDS011;11728;50.624;6.014;2023-07-02T21:49:54;14.05;;;3.85;;
23117;SDS011;11728;50.624;6.014;2023-07-02T21:55:15;17.92;;;4.22;;
23117;SDS011;11728;50.624;6.014;2023-07-02T22:00:36;14.32;;;4.05;;
23117;SDS011;11728;50.624;6.014;2023-07-02T22:05:57;14.27;;;3.80;;
23117;SDS011;11728;50.624;6.014;2023-07-02T22:11:17;17.00;;;3.47;;
23117;SDS011;11728;50.624;6.014;2023-07-02T22:16:38;16.67;;;3.95;;
23117;SDS011;11728;50.624;6.014;2023-07-02T22:21:59;17.13;;;4.45;;
23117;SDS011;11728;50.624;6.014;2023-07-02T22:27:20;16.63;;;4.22;;
23117;SDS011;11728;50.624;6.014;2023-07-02T22:32:43;14.57;;;4.22;;
23117;SDS011;11728;50.624;6.014;2023-07-02T22:38:04;16.92;;;4.13;;
23117;SDS011;11728;50.624;6.014;2023-07-02T22:43:24;17.58;;;4.30;;
23117;SDS011;11728;50.624;6.014;2023-07-02T22:48:45;17.10;;;4.15;;
23117;SDS011;11728;50.624;6.014;2023-07-02T22:54:07;20.35;;;4.72;;
23117;SDS011;11728;50.624;6.014;2023-07-02T22:59:28;15.20;;;4.15;;
23117;SDS011;11728;50.624;6.014;2023-07-02T23:04:49;14.25;;;3.53;;
23117;SDS011;11728;50.624;6.014;2023-07-02T23:10:10;14.75;;;4.32;;
23117;SDS011;11728;50.624;6.014;2023-07-02T23:15:36;18.25;;;4.15;;
23117;SDS011;11728;50.624;6.014;2023-07-02T23:20:56;19.23;;;4.25;;
23117;SDS011;11728;50.624;6.014;2023-07-02T23:26:17;15.13;;;4.00;;
23117;SDS011;11728;50.624;6.014;2023-07-02T23:31:38;18.73;;;4.68;;
23117;SDS011;11728;50.624;6.014;2023-07-02T23:36:58;15.02;;;4.15;;
23117;SDS011;11728;50.624;6.014;2023-07-02T23:42:19;18.02;;;4.10;;
23117;SDS011;11728;50.624;6.014;2023-07-02T23:47:40;19.55;;;4.65;;
23117;SDS011;11728;50.624;6.014;2023-07-02T23:53:02;19.90;;;4.85;;
23117;SDS011;11728;50.624;6.014;2023-07-02T23:58:23;16.80;;;3.63;;
